Time;durP1;ratioP1;P1;durP2;ratioP2;P2;SDS_P1;SDS_P2;PMS_P1;PMS_P2;Temp;Humidity;BMP_temperature;BMP_pressure;BME280_temperature;BME280_humidity;BME280_pressure;Samples;Min_cycle;Max_cycle;Signal;HPM_P1;HPM_P2
2021/12/14 00:00:20;;;;;;;15.30;7.87;;;;;;;2.03;100.00;97259.13;4985963;28;20056;-74
2021/12/14 00:02:48;;;;;;;19.03;9.37;;;;;;;1.98;100.00;97257.69;5016689;28;20029;-75
2021/12/14 00:05:17;;;;;;;17.17;8.77;;;;;;;2.01;100.00;97253.22;4993671;28;20597;-74
2021/12/14 00:07:44;;;;;;;23.00;10.17;;;;;;;1.87;100.00;97255.66;5004276;28;20060;-75
2021/12/14 00:10:28;;;;;;;15.67;8.43;;;;;;;2.00;100.00;97251.50;5032108;28;20040;-74
2021/12/14 00:13:01;;;;;;;15.83;7.97;;;;;;;1.97;100.00;97256.03;5015769;28;20456;-74
2021/12/14 00:15:28;;;;;;;15.25;8.77;;;;;;;1.94;100.00;97257.03;5012540;28;20095;-74
2021/12/14 00:17:58;;;;;;;18.10;8.63;;;;;;;1.98;100.00;97253.38;5029645;28;20034;-74
2021/12/14 00:20:42;;;;;;;13.33;7.70;;;;;;;1.96;100.00;97242.22;5033670;28;20524;-74
2021/12/14 00:25:52;;;;;;;14.40;6.87;;;;;;;1.94;100.00;97257.03;5029996;28;19916;-74
2021/12/14 00:28:29;;;;;;;17.60;8.70;;;;;;;2.02;100.00;97254.03;5014031;28;20025;-74
2021/12/14 00:30:58;;;;;;;17.70;8.07;;;;;;;1.99;100.00;97265.41;5014949;28;20036;-74
2021/12/14 00:33:33;;;;;;;13.40;6.67;;;;;;;1.98;100.00;97258.56;5029026;28;20040;-74
2021/12/14 00:36:00;;;;;;;9.27;4.90;;;;;;;1.99;100.00;97243.81;5016569;28;20041;-74
2021/12/14 00:38:27;;;;;;;11.73;5.23;;;;;;;2.08;100.00;97253.72;5000221;28;20013;-74
2021/12/14 00:41:01;;;;;;;13.97;6.77;;;;;;;2.02;100.00;97248.84;5008674;28;20472;-75
2021/12/14 00:43:27;;;;;;;18.80;9.07;;;;;;;1.99;100.00;97249.00;5031110;28;20696;-74
2021/12/14 00:45:53;;;;;;;14.87;8.17;;;;;;;2.00;100.00;97248.91;5011857;28;20095;-74
2021/12/14 00:48:20;;;;;;;13.23;6.63;;;;;;;1.99;100.00;97249.84;5007231;28;20076;-74
2021/12/14 00:50:51;;;;;;;14.93;7.10;;;;;;;2.01;100.00;97245.44;5011894;28;20041;-74
2021/12/14 00:53:19;;;;;;;9.10;4.70;;;;;;;2.03;100.00;97248.75;5022924;28;20383;-74
2021/12/14 00:55:47;;;;;;;9.77;4.97;;;;;;;2.01;100.00;97236.78;5031248;28;20032;-74
2021/12/14 00:58:15;;;;;;;5.53;3.30;;;;;;;1.97;100.00;97249.06;5008209;28;20041;-75
2021/12/14 01:00:52;;;;;;;8.47;3.40;;;;;;;2.01;100.00;97250.63;4995283;28;20475;-74
2021/12/14 01:03:19;;;;;;;7.77;3.67;;;;;;;1.99;100.00;97243.81;5013194;28;20030;-74
2021/12/14 01:05:48;;;;;;;6.43;3.50;;;;;;;2.00;100.00;97240.31;5001762;28;20056;-75
2021/12/14 01:08:22;;;;;;;6.43;3.03;;;;;;;1.94;100.00;97244.06;5003692;28;20180;-75
2021/12/14 01:11:04;;;;;;;5.23;2.53;;;;;;;1.98;100.00;97234.34;4995209;28;20120;-74
2021/12/14 01:13:34;;;;;;;5.00;2.30;;;;;;;1.91;100.00;97244.22;4994623;28;20044;-74
2021/12/14 01:16:32;;;;;;;6.03;3.20;;;;;;;1.85;100.00;97247.16;4991943;28;20040;-75
2021/12/14 01:27:31;;;;;;;3.50;2.10;;;;;;;1.85;100.00;97253.19;5018854;28;20037;-74
2021/12/14 01:30:01;;;;;;;6.97;2.33;;;;;;;1.85;100.00;97265.31;5010816;28;20037;-74
2021/12/14 01:32:30;;;;;;;6.87;3.27;;;;;;;1.85;100.00;97270.50;5014932;28;20032;-74
2021/12/14 01:34:55;;;;;;;6.23;3.20;;;;;;;1.86;100.00;97256.59;5014709;28;20026;-74
2021/12/14 01:37:26;;;;;;;5.20;2.90;;;;;;;1.83;100.00;97262.78;5013370;28;20513;-74
2021/12/14 01:42:31;;;;;;;6.77;3.37;;;;;;;1.81;100.00;97271.53;5020470;28;20114;-75
2021/12/14 01:45:11;;;;;;;6.37;3.57;;;;;;;1.84;100.00;97272.22;5007293;28;20029;-74
2021/12/14 01:47:59;;;;;;;6.07;2.87;;;;;;;1.79;100.00;97274.25;5009392;28;20050;-74
2021/12/14 01:50:39;;;;;;;6.77;3.30;;;;;;;1.78;100.00;97275.16;5010804;28;20045;-75
2021/12/14 01:53:22;;;;;;;6.53;3.07;;;;;;;1.81;100.00;97276.75;5004266;28;20558;-74
2021/12/14 01:55:51;;;;;;;5.93;2.73;;;;;;;1.75;100.00;97275.31;4994906;28;20656;-75
2021/12/14 01:58:18;;;;;;;9.23;3.23;;;;;;;1.65;100.00;97276.72;5010732;28;20429;-75
2021/12/14 02:00:58;;;;;;;6.70;3.10;;;;;;;1.72;100.00;97282.41;4989242;28;20029;-74
2021/12/14 02:03:34;;;;;;;6.83;3.43;;;;;;;1.67;100.00;97279.22;4975108;28;20030;-75
2021/12/14 02:06:01;;;;;;;6.93;3.30;;;;;;;1.59;100.00;97288.22;5025294;28;20033;-74
2021/12/14 02:08:34;;;;;;;7.23;3.67;;;;;;;1.63;100.00;97287.16;5025567;28;20022;-75
2021/12/14 02:11:05;;;;;;;7.90;4.17;;;;;;;1.56;100.00;97278.00;5007294;28;20033;-75
2021/12/14 02:13:39;;;;;;;8.53;4.20;;;;;;;1.54;100.00;97271.22;5000153;28;20033;-75
2021/12/14 02:16:11;;;;;;;9.30;4.87;;;;;;;1.52;100.00;97271.31;4997827;28;20087;-75
2021/12/14 02:18:37;;;;;;;8.97;4.77;;;;;;;1.44;100.00;97281.22;5026868;28;20121;-74
2021/12/14 02:21:11;;;;;;;8.83;5.17;;;;;;;1.41;100.00;97281.41;5013005;28;20021;-75
2021/12/14 02:23:42;;;;;;;8.53;4.97;;;;;;;1.40;100.00;97280.53;5008228;28;20034;-75
2021/12/14 02:26:12;;;;;;;10.93;5.00;;;;;;;1.35;100.00;97276.50;5008617;28;20037;-75
2021/12/14 02:28:38;;;;;;;12.43;4.43;;;;;;;1.35;100.00;97285.13;5016099;28;20033;-75
2021/12/14 02:31:07;;;;;;;58.53;7.83;;;;;;;1.29;100.00;97287.19;5011661;28;20021;-74
2021/12/14 02:33:36;;;;;;;15.50;5.70;;;;;;;1.22;100.00;97291.00;4998570;28;20063;-75
2021/12/14 02:36:10;;;;;;;69.13;8.93;;;;;;;1.16;100.00;97290.38;4991160;28;20379;-74
2021/12/14 02:38:42;;;;;;;145.05;11.63;;;;;;;1.18;100.00;97283.38;5026356;28;20115;-75
2021/12/14 02:41:08;;;;;;;66.23;9.10;;;;;;;1.26;100.00;97279.56;5018644;28;20041;-75
2021/12/14 02:43:55;;;;;;;79.80;10.73;;;;;;;1.24;100.00;97273.59;5009526;28;20033;-75
2021/12/14 02:46:34;;;;;;;85.37;9.63;;;;;;;1.26;100.00;97269.19;4978471;28;20036;-75
2021/12/14 02:49:07;;;;;;;98.53;10.67;;;;;;;1.23;100.00;97277.13;4991210;28;20084;-75
2021/12/14 02:51:41;;;;;;;85.50;9.00;;;;;;;1.24;100.00;97278.78;5000533;28;20029;-75
2021/12/14 02:54:15;;;;;;;20.23;7.80;;;;;;;1.35;100.00;97276.50;4994941;28;20446;-75
2021/12/14 02:56:45;;;;;;;36.57;8.60;;;;;;;1.34;100.00;97272.22;5021328;28;20462;-74
2021/12/14 02:59:14;;;;;;;31.93;8.60;;;;;;;1.28;100.00;97268.22;5010393;28;20541;-75
2021/12/14 03:01:43;;;;;;;34.27;8.03;;;;;;;1.32;100.00;97271.47;4997875;28;20022;-75
2021/12/14 03:04:13;;;;;;;51.53;8.33;;;;;;;1.30;100.00;97265.53;5017207;28;20039;-75
2021/12/14 03:06:52;;;;;;;34.23;7.27;;;;;;;1.27;100.00;97261.31;5000943;28;20030;-75
2021/12/14 03:12:19;;;;;;;48.33;7.10;;;;;;;1.24;100.00;97255.47;5033130;28;20029;-75
2021/12/14 03:14:53;;;;;;;89.30;9.10;;;;;;;1.23;100.00;97256.38;5011498;28;20025;-75
2021/12/14 03:17:25;;;;;;;36.13;7.67;;;;;;;1.28;100.00;97259.59;5022053;28;21011;-74
2021/12/14 03:19:58;;;;;;;68.20;9.67;;;;;;;1.14;100.00;97261.13;4993929;28;20030;-75
2021/12/14 03:22:32;;;;;;;71.97;9.30;;;;;;;1.23;100.00;97254.63;5001205;28;20028;-75
2021/12/14 03:24:59;;;;;;;46.27;8.63;;;;;;;1.26;100.00;97258.81;5013629;28;20467;-75
2021/12/14 03:27:26;;;;;;;14.90;6.53;;;;;;;1.35;100.00;97264.38;5014759;28;20434;-75
2021/12/14 03:29:52;;;;;;;37.17;8.53;;;;;;;1.33;100.00;97260.19;5014250;28;20132;-75
2021/12/14 03:32:20;;;;;;;54.73;8.30;;;;;;;1.21;100.00;97253.03;5012128;28;20025;-75
2021/12/14 03:34:47;;;;;;;56.57;8.70;;;;;;;1.27;100.00;97260.50;5015770;28;20037;-75
2021/12/14 03:37:21;;;;;;;35.63;7.80;;;;;;;1.26;100.00;97269.19;5016380;28;20021;-74
2021/12/14 03:39:52;;;;;;;45.47;7.27;;;;;;;1.19;100.00;97279.03;5022236;28;20108;-75
2021/12/14 03:42:22;;;;;;;53.33;7.67;;;;;;;1.19;100.00;97276.44;5014036;28;20116;-75
2021/12/14 03:44:52;;;;;;;56.43;9.77;;;;;;;1.20;100.00;97274.66;4998401;28;20037;-76
2021/12/14 03:47:31;;;;;;;41.53;7.70;;;;;;;1.24;100.00;97276.19;5012979;28;20044;-76
2021/12/14 03:50:07;;;;;;;39.27;7.90;;;;;;;1.20;100.00;97270.31;4997807;28;20048;-76
2021/12/14 03:52:36;;;;;;;62.33;8.33;;;;;;;1.15;100.00;97259.38;5018439;28;20021;-76
2021/12/14 03:55:10;;;;;;;54.80;8.40;;;;;;;1.18;100.00;97254.88;5014316;28;20038;-76
2021/12/14 03:57:36;;;;;;;75.17;9.63;;;;;;;1.03;100.00;97250.44;5011940;28;20135;-75
2021/12/14 04:00:13;;;;;;;65.30;9.33;;;;;;;1.11;100.00;97253.50;4998031;28;20029;-76
2021/12/14 04:02:47;;;;;;;46.03;8.30;;;;;;;1.09;100.00;97252.72;5034352;28;20136;-75
2021/12/14 04:05:16;;;;;;;40.73;7.97;;;;;;;1.11;100.00;97256.09;5032494;28;20067;-75
2021/12/14 04:07:44;;;;;;;101.93;11.07;;;;;;;1.07;100.00;97246.78;4998687;28;20045;-76
2021/12/14 04:10:31;;;;;;;68.03;10.67;;;;;;;1.01;100.00;97248.84;4995589;28;20124;-75
2021/12/14 04:13:01;;;;;;;52.23;9.13;;;;;;;0.96;100.00;97256.00;4992795;28;20398;-75
2021/12/14 04:15:27;;;;;;;49.93;8.60;;;;;;;0.97;100.00;97257.66;4995244;28;20025;-75
2021/12/14 04:17:54;;;;;;;105.37;12.77;;;;;;;1.01;100.00;97264.41;5020730;28;20028;-75
2021/12/14 04:20:30;;;;;;;53.57;11.07;;;;;;;0.97;100.00;97255.06;5016005;28;20103;-75
2021/12/14 04:22:59;;;;;;;142.50;13.90;;;;;;;0.89;100.00;97265.81;5015670;28;20460;-75
2021/12/14 04:25:34;;;;;;;57.23;10.57;;;;;;;0.91;100.00;97277.78;5006963;28;20074;-75
2021/12/14 04:28:04;;;;;;;66.43;9.73;;;;;;;0.92;100.00;97274.28;5017447;28;20029;-75
2021/12/14 04:30:30;;;;;;;64.67;10.83;;;;;;;0.99;100.00;97272.22;5018474;28;20041;-75
2021/12/14 04:33:02;;;;;;;87.57;12.30;;;;;;;0.90;100.00;97270.06;5020317;28;20086;-75
2021/12/14 04:35:37;;;;;;;90.77;11.73;;;;;;;0.82;100.00;97269.63;5012216;28;20056;-76
2021/12/14 04:38:12;;;;;;;23.27;8.90;;;;;;;0.89;100.00;97266.66;4997510;28;20469;-75
2021/12/14 04:51:57;;;;;;;121.77;13.40;;;;;;;0.80;100.00;97255.91;5026793;28;20115;-74
2021/12/14 04:54:29;;;;;;;71.73;9.63;;;;;;;0.87;100.00;97262.44;5018674;28;20427;-76
2021/12/14 04:56:57;;;;;;;67.87;10.07;;;;;;;0.91;100.00;97253.66;4993728;28;20141;-75
2021/12/14 04:59:32;;;;;;;119.17;12.67;;;;;;;0.86;100.00;97240.91;5007093;28;20033;-75
2021/12/14 05:02:11;;;;;;;124.47;12.60;;;;;;;0.75;100.00;97245.78;5011202;28;20495;-75
2021/12/14 05:05:32;;;;;;;42.77;8.93;;;;;;;0.82;100.00;97229.03;4941202;29;20039;-75
2021/12/14 05:10:56;;;;;;;102.60;10.57;;;;;;;0.69;100.00;97221.00;5011591;28;20033;-74
2021/12/14 05:13:39;;;;;;;108.60;11.33;;;;;;;0.63;100.00;97218.72;5011592;28;20064;-75
2021/12/14 05:16:14;;;;;;;76.13;10.03;;;;;;;0.59;100.00;97224.13;5002368;28;20032;-74
2021/12/14 05:18:54;;;;;;;25.80;8.43;;;;;;;0.73;100.00;97223.44;5010151;28;20489;-74
2021/12/14 05:21:38;;;;;;;83.97;12.03;;;;;;;0.72;100.00;97216.59;5004820;28;20033;-74
2021/12/14 05:24:09;;;;;;;87.32;11.65;;;;;;;0.65;100.00;97223.81;5017841;28;20564;-75
2021/12/14 05:26:42;;;;;;;69.23;9.30;;;;;;;0.54;100.00;97220.91;5005289;28;20033;-74
2021/12/14 05:29:10;;;;;;;35.10;7.90;;;;;;;0.60;100.00;97213.69;5012702;28;20971;-74
2021/12/14 05:31:49;;;;;;;64.30;9.07;;;;;;;0.47;100.00;97203.09;4995054;28;20022;-75
2021/12/14 05:34:16;;;;;;;40.47;8.40;;;;;;;0.55;100.00;97222.59;5003191;28;20470;-76
2021/12/14 05:36:44;;;;;;;72.60;9.27;;;;;;;0.42;100.00;97224.91;5016742;28;20473;-75
2021/12/14 05:44:45;;;;;;;;;;;;;;;0.39;100.00;97225.91;5018179;28;20468;-74
2021/12/14 05:47:16;;;;;;;85.03;10.37;;;;;;;0.44;100.00;97226.53;5022824;28;19955;-74
2021/12/14 05:49:55;;;;;;;45.15;8.05;;;;;;;0.54;100.00;97231.25;4997726;28;20488;-75
2021/12/14 05:52:26;;;;;;;69.93;9.27;;;;;;;0.58;100.00;97230.22;5005926;28;20467;-75
2021/12/14 05:54:55;;;;;;;95.90;10.90;;;;;;;0.51;100.00;97234.84;5021696;28;20091;-76
2021/12/14 05:57:25;;;;;;;65.33;9.80;;;;;;;0.52;100.00;97233.94;5003558;28;20469;-75
2021/12/14 05:59:54;;;;;;;77.27;9.97;;;;;;;0.49;100.00;97235.81;4983555;28;20061;-75
2021/12/14 06:02:23;;;;;;;41.27;8.97;;;;;;;0.48;100.00;97235.00;5028796;28;20674;-74
2021/12/14 06:04:52;;;;;;;83.57;10.93;;;;;;;0.36;100.00;97238.97;4997529;28;20028;-75
2021/12/14 06:07:19;;;;;;;37.40;9.20;;;;;;;0.41;100.00;97249.13;5004584;28;20498;-75
2021/12/14 06:09:50;;;;;;;102.10;11.13;;;;;;;0.22;100.00;97239.63;5013594;28;20609;-75
2021/12/14 06:12:39;;;;;;;69.73;11.03;;;;;;;0.25;100.00;97225.72;4994719;28;20040;-75
2021/12/14 06:15:17;;;;;;;52.87;8.20;;;;;;;0.28;100.00;97235.94;4991989;28;20456;-75
2021/12/14 06:17:45;;;;;;;44.07;9.07;;;;;;;0.29;100.00;97244.53;4990672;28;20556;-75
2021/12/14 06:20:34;;;;;;;59.83;9.60;;;;;;;0.25;100.00;97241.25;4993494;28;20556;-75
2021/12/14 06:23:03;;;;;;;26.93;7.93;;;;;;;0.31;100.00;97242.72;4992088;28;20460;-76
2021/12/14 06:25:56;;;;;;;78.68;11.27;;;;;;;0.34;100.00;97250.34;4999013;28;20914;-75
2021/12/14 06:28:29;;;;;;;41.67;8.50;;;;;;;0.36;100.00;97245.91;4986855;28;20102;-76
2021/12/14 06:30:58;;;;;;;100.30;11.37;;;;;;;0.34;100.00;97238.22;5005174;28;21337;-76
2021/12/14 06:33:28;;;;;;;104.27;12.57;;;;;;;0.29;100.00;97242.75;5002066;28;20504;-75
2021/12/14 06:35:58;;;;;;;135.57;13.80;;;;;;;0.27;100.00;97229.09;5001367;28;20538;-75
2021/12/14 06:38:28;;;;;;;107.47;11.47;;;;;;;0.25;100.00;97232.66;4993705;28;20462;-74
2021/12/14 06:41:11;;;;;;;83.60;9.80;;;;;;;0.24;100.00;97239.56;5009382;28;21034;-76
2021/12/14 06:43:44;;;;;;;54.73;8.00;;;;;;;0.29;100.00;97247.09;5002758;28;20487;-76
2021/12/14 06:46:15;;;;;;;85.65;10.90;;;;;;;0.34;100.00;97235.63;5019530;28;20530;-76
2021/12/14 06:49:04;;;;;;;96.40;11.97;;;;;;;0.36;100.00;97232.97;5003788;28;20572;-75
2021/12/14 06:51:35;;;;;;;52.60;8.63;;;;;;;0.30;100.00;97220.31;5000972;28;20467;-76
2021/12/14 06:54:28;;;;;;;94.83;11.30;;;;;;;0.22;100.00;97208.59;5018784;28;20563;-75
2021/12/14 06:57:13;;;;;;;96.27;9.57;;;;;;;0.29;100.00;97218.66;5026818;28;20476;-75
2021/12/14 07:00:00;;;;;;;96.57;10.33;;;;;;;0.28;100.00;97214.41;5020032;28;20482;-76
2021/12/14 07:02:51;;;;;;;65.43;9.70;;;;;;;0.24;100.00;97221.47;5004683;28;20475;-76
2021/12/14 07:05:34;;;;;;;85.00;14.23;;;;;;;0.31;100.00;97217.66;5022385;28;20539;-75
2021/12/14 07:08:09;;;;;;;73.27;13.87;;;;;;;0.28;100.00;97209.22;4996910;28;20461;-76
2021/12/14 07:10:37;;;;;;;58.15;12.38;;;;;;;0.35;100.00;97214.03;5008719;28;20475;-76
2021/12/14 07:13:17;;;;;;;55.00;13.50;;;;;;;0.35;100.00;97208.00;5015289;28;20034;-76
2021/12/14 07:15:43;;;;;;;57.30;10.10;;;;;;;0.39;100.00;97209.53;5011210;28;20471;-76
2021/12/14 07:18:10;;;;;;;117.33;12.40;;;;;;;0.34;100.00;97209.78;5009455;28;20559;-76
2021/12/14 07:20:49;;;;;;;94.47;11.80;;;;;;;0.37;100.00;97195.81;5008585;28;20855;-76
2021/12/14 07:23:28;;;;;;;119.77;13.20;;;;;;;0.21;100.00;97193.97;4998166;28;20529;-76
2021/12/14 07:26:04;;;;;;;54.70;10.10;;;;;;;0.29;100.00;97190.19;5015174;28;20587;-76
2021/12/14 07:28:37;;;;;;;36.83;9.73;;;;;;;0.29;100.00;97183.25;4995877;28;20476;-76
2021/12/14 07:31:15;;;;;;;43.50;11.37;;;;;;;0.31;100.00;97181.44;5026709;28;21108;-76
2021/12/14 07:33:47;;;;;;;51.67;9.43;;;;;;;0.30;100.00;97173.75;4991771;28;20448;-76
2021/12/14 07:36:26;;;;;;;42.30;9.30;;;;;;;0.20;100.00;97174.22;5035779;28;20467;-76
2021/12/14 07:38:58;;;;;;;38.87;8.60;;;;;;;0.19;100.00;97169.09;5008718;28;20459;-76
2021/12/14 07:41:52;;;;;;;21.67;7.13;;;;;;;0.26;100.00;97182.56;5002286;28;20492;-75
2021/12/14 07:44:33;;;;;;;45.40;8.80;;;;;;;0.26;100.00;97178.22;5008313;28;20463;-76
2021/12/14 07:47:09;;;;;;;23.40;7.57;;;;;;;0.30;100.00;97184.09;5019040;28;20510;-76
2021/12/14 07:49:40;;;;;;;56.33;8.80;;;;;;;0.26;100.00;97178.22;5013881;28;20037;-76
2021/12/14 07:52:09;;;;;;;54.90;8.50;;;;;;;0.20;100.00;97175.94;5020485;28;20490;-75
2021/12/14 07:54:51;;;;;;;19.00;7.57;;;;;;;0.23;100.00;97174.06;5014027;28;20452;-76
2021/12/14 07:57:25;;;;;;;28.03;8.20;;;;;;;0.32;100.00;97175.34;5023486;28;20545;-75
2021/12/14 08:00:01;;;;;;;27.53;7.70;;;;;;;0.38;100.00;97202.69;5016729;28;20514;-76
2021/12/14 08:02:39;;;;;;;18.50;8.03;;;;;;;0.44;100.00;97194.66;4989553;28;20491;-76
2021/12/14 08:05:13;;;;;;;20.37;8.40;;;;;;;0.48;100.00;97183.22;5010754;28;20491;-76
2021/12/14 08:07:43;;;;;;;17.17;8.20;;;;;;;0.59;100.00;97199.06;5000260;28;20542;-76
2021/12/14 08:10:40;;;;;;;22.80;8.87;;;;;;;0.74;100.00;97199.22;5005803;28;20483;-76
2021/12/14 08:13:21;;;;;;;16.60;7.60;;;;;;;0.83;100.00;97199.63;5016360;28;20040;-75
2021/12/14 08:15:49;;;;;;;19.93;8.27;;;;;;;0.77;100.00;97204.25;5015957;28;20467;-76
2021/12/14 08:18:30;;;;;;;27.83;9.13;;;;;;;0.88;100.00;97208.00;5022593;28;20025;-75
2021/12/14 08:21:06;;;;;;;56.30;10.47;;;;;;;0.94;100.00;97207.72;5012207;28;20029;-76
2021/12/14 08:23:35;;;;;;;13.63;7.13;;;;;;;1.00;100.00;97210.91;5005530;28;20468;-76
2021/12/14 08:26:07;;;;;;;38.30;12.97;;;;;;;1.10;100.00;97205.16;5017073;28;20118;-76
2021/12/14 08:28:54;;;;;;;148.73;24.07;;;;;;;1.09;100.00;97206.09;5003908;28;20488;-75
2021/12/14 08:31:23;;;;;;;37.97;10.03;;;;;;;1.10;100.00;97202.59;5018992;28;20060;-76
2021/12/14 08:33:58;;;;;;;17.87;7.67;;;;;;;1.23;100.00;97202.81;5037119;28;20021;-76
2021/12/14 08:36:24;;;;;;;22.63;9.70;;;;;;;1.32;100.00;97201.50;4998401;28;20027;-75
2021/12/14 08:39:14;;;;;;;20.97;10.23;;;;;;;1.52;100.00;97209.09;5049123;28;20182;-76
2021/12/14 08:41:55;;;;;;;19.20;9.50;;;;;;;1.44;100.00;97200.84;5007970;28;20690;-75
2021/12/14 08:44:36;;;;;;;18.73;10.00;;;;;;;1.42;100.00;97226.03;5030752;28;20480;-76
2021/12/14 08:47:13;;;;;;;18.63;10.10;;;;;;;1.49;100.00;97227.41;5010285;28;20041;-76
2021/12/14 08:49:42;;;;;;;17.67;9.70;;;;;;;1.40;100.00;97238.22;5025549;28;20041;-76
2021/12/14 08:52:09;;;;;;;15.80;8.00;;;;;;;1.60;100.00;97232.84;5012564;28;20594;-76
2021/12/14 08:54:37;;;;;;;14.27;8.00;;;;;;;1.73;100.00;97237.41;4991943;28;20120;-76
2021/12/14 08:57:13;;;;;;;24.43;9.97;;;;;;;1.67;100.00;97253.28;4981637;28;20107;-76
2021/12/14 08:59:43;;;;;;;51.80;10.07;;;;;;;1.77;100.00;97254.47;5003838;28;20025;-76
2021/12/14 09:02:13;;;;;;;31.77;8.50;;;;;;;1.65;100.00;97248.19;5010686;28;20719;-76
2021/12/14 09:05:04;;;;;;;28.70;9.13;;;;;;;1.83;100.00;97249.81;5010160;28;20079;-74
2021/12/14 09:07:31;;;;;;;14.23;7.40;;;;;;;1.98;100.00;97248.19;4989304;28;20273;-76
2021/12/14 09:09:58;;;;;;;13.83;6.40;;;;;;;2.12;100.00;97239.66;5032105;28;20104;-76
2021/12/14 09:12:39;;;;;;;16.87;7.30;;;;;;;2.24;100.00;97238.13;4996293;28;20130;-76
2021/12/14 09:15:11;;;;;;;12.13;6.27;;;;;;;2.24;100.00;97241.56;5001049;28;20032;-76
2021/12/14 09:17:37;;;;;;;13.63;6.63;;;;;;;2.38;100.00;97243.41;5030459;28;20028;-76
2021/12/14 09:20:29;;;;;;;11.70;6.80;;;;;;;2.76;100.00;97230.91;5013810;28;20028;-76
2021/12/14 09:23:00;;;;;;;11.60;6.50;;;;;;;2.62;100.00;97230.03;5018584;28;20056;-75
2021/12/14 09:25:29;;;;;;;13.20;6.20;;;;;;;2.68;100.00;97232.25;5002436;28;20040;-76
2021/12/14 09:27:57;;;;;;;12.67;5.97;;;;;;;2.47;100.00;97226.50;5008957;28;20394;-76
2021/12/14 09:30:25;;;;;;;11.93;6.97;;;;;;;2.60;100.00;97233.53;5010462;28;20372;-75
2021/12/14 09:32:51;;;;;;;13.40;8.43;;;;;;;2.81;100.00;97243.63;4996921;28;20128;-77
2021/12/14 09:35:22;;;;;;;14.47;8.43;;;;;;;2.95;100.00;97250.63;4998980;28;20133;-75
2021/12/14 09:37:52;;;;;;;14.43;8.23;;;;;;;3.14;100.00;97246.06;5013459;28;20032;-76
2021/12/14 09:40:27;;;;;;;11.53;5.87;;;;;;;3.59;100.00;97236.50;4995371;28;20051;-76
2021/12/14 09:42:53;;;;;;;9.67;5.20;;;;;;;3.41;100.00;97232.38;4984448;28;20037;-76
2021/12/14 09:45:25;;;;;;;7.93;4.60;;;;;;;3.02;100.00;97236.41;5008775;28;20018;-75
2021/12/14 09:47:53;;;;;;;8.13;4.77;;;;;;;3.18;100.00;97241.53;5009760;28;20040;-76
2021/12/14 09:50:33;;;;;;;9.63;5.63;;;;;;;3.30;100.00;97240.81;5012211;28;20097;-77
2021/12/14 09:53:01;;;;;;;23.70;14.17;;;;;;;3.06;100.00;97237.88;4986174;28;20663;-76
2021/12/14 09:55:32;;;;;;;12.87;7.67;;;;;;;3.19;100.00;97227.63;5035863;28;20056;-76
2021/12/14 09:58:04;;;;;;;12.17;6.13;;;;;;;3.06;100.00;97225.72;5021391;28;20029;-75
2021/12/14 10:00:35;;;;;;;10.90;6.13;;;;;;;3.15;100.00;97234.72;5007645;28;20481;-76
2021/12/14 10:03:04;;;;;;;11.87;6.57;;;;;;;2.79;100.00;97228.16;4999701;28;20094;-76
2021/12/14 10:05:42;;;;;;;12.10;6.87;;;;;;;3.06;100.00;97230.94;5023939;28;20096;-76
2021/12/14 10:08:18;;;;;;;11.77;6.27;;;;;;;3.04;100.00;97237.13;5007343;28;20115;-76
2021/12/14 10:10:57;;;;;;;12.50;6.03;;;;;;;2.90;100.00;97224.94;5005332;28;20033;-76
2021/12/14 10:13:24;;;;;;;13.30;6.67;;;;;;;2.99;100.00;97226.19;5002446;28;20036;-77
2021/12/14 10:15:53;;;;;;;11.57;6.97;;;;;;;2.95;100.00;97235.91;5032106;28;20057;-76
2021/12/14 10:18:24;;;;;;;13.13;8.30;;;;;;;2.98;100.00;97209.72;5009177;28;21201;-75
2021/12/14 10:21:15;;;;;;;13.70;7.23;;;;;;;3.03;100.00;97228.50;5008748;28;20045;-76
2021/12/14 10:23:42;;;;;;;13.17;7.63;;;;;;;3.18;100.00;97215.53;5020340;28;20030;-79
2021/12/14 10:26:09;;;;;;;13.23;7.47;;;;;;;3.12;100.00;97221.09;5004761;28;20100;-76
2021/12/14 10:28:37;;;;;;;13.47;7.73;;;;;;;2.97;100.00;97218.47;5032518;28;20087;-75
2021/12/14 10:31:07;;;;;;;12.27;7.47;;;;;;;2.96;100.00;97216.78;5007011;28;20570;-77
2021/12/14 10:33:34;;;;;;;11.30;7.23;;;;;;;2.94;100.00;97213.44;4998312;28;20029;-76
2021/12/14 10:36:13;;;;;;;14.07;8.73;;;;;;;3.04;100.00;97211.97;5009112;28;20094;-77
2021/12/14 10:39:00;;;;;;;12.13;7.50;;;;;;;3.15;100.00;97215.72;4999566;28;20150;-76
2021/12/14 10:44:08;;;;;;;16.53;9.43;;;;;;;3.22;100.00;97217.88;5026079;28;20025;-75
2021/12/14 10:46:39;;;;;;;14.37;8.53;;;;;;;3.24;100.00;97215.19;5007690;28;20083;-76
2021/12/14 10:49:06;;;;;;;19.10;9.27;;;;;;;3.30;100.00;97209.63;5018277;28;20045;-76
2021/12/14 10:51:36;;;;;;;15.83;8.90;;;;;;;3.29;100.00;97203.59;5002225;28;20029;-77
2021/12/14 10:54:06;;;;;;;16.77;10.00;;;;;;;3.40;100.00;97210.75;5010835;28;20033;-76
2021/12/14 10:56:39;;;;;;;18.13;9.60;;;;;;;3.49;100.00;97205.00;5021229;28;20036;-76
2021/12/14 10:59:07;;;;;;;16.58;9.43;;;;;;;3.57;100.00;97206.31;5007255;28;20060;-77
2021/12/14 11:01:35;;;;;;;12.23;7.53;;;;;;;3.80;100.00;97195.34;5009338;28;20060;-75
2021/12/14 11:04:05;;;;;;;11.67;5.90;;;;;;;3.82;100.00;97190.88;5005084;28;20045;-75
2021/12/14 11:06:33;;;;;;;11.30;6.23;;;;;;;4.03;100.00;97203.53;4991969;28;20028;-74
2021/12/14 11:11:46;;;;;;;11.47;6.30;;;;;;;4.24;100.00;97196.97;5022004;28;20030;-75
2021/12/14 11:14:18;;;;;;;9.43;6.20;;;;;;;4.36;100.00;97193.59;5015400;28;20045;-76
2021/12/14 11:19:51;;;;;;;12.70;7.47;;;;;;;4.53;100.00;97191.66;5007217;28;20029;-76
2021/12/14 11:22:19;;;;;;;10.80;6.23;;;;;;;4.51;100.00;97191.78;4996699;28;20056;-77
2021/12/14 11:24:49;;;;;;;11.30;5.87;;;;;;;4.66;100.00;97202.97;5029973;28;20025;-75
2021/12/14 11:27:19;;;;;;;10.20;5.80;;;;;;;4.83;100.00;97200.13;5036094;28;20056;-76
2021/12/14 11:29:49;;;;;;;30.93;16.90;;;;;;;4.83;100.00;97200.13;5001320;28;20021;-76
2021/12/14 11:32:19;;;;;;;11.50;6.30;;;;;;;4.86;100.00;97199.94;5008333;28;20051;-76
2021/12/14 11:34:46;;;;;;;8.67;4.77;;;;;;;4.63;100.00;97195.38;5031520;28;20072;-76
2021/12/14 11:37:19;;;;;;;8.37;5.10;;;;;;;4.79;100.00;97192.59;5005163;28;20034;-75
2021/12/14 11:39:48;;;;;;;8.38;4.70;;;;;;;4.61;100.00;97184.22;5024202;28;20099;-75
2021/12/14 11:42:22;;;;;;;10.47;5.87;;;;;;;4.53;100.00;97174.28;5037539;28;20040;-75
2021/12/14 11:44:52;;;;;;;9.43;5.00;;;;;;;4.60;100.00;97169.53;5018430;28;20043;-75
2021/12/14 11:50:16;;;;;;;9.63;5.50;;;;;;;4.37;100.00;97171.81;5020784;28;20030;-75
2021/12/14 11:53:00;;;;;;;10.90;6.10;;;;;;;4.47;100.00;97172.06;5020668;28;20033;-76
2021/12/14 11:55:52;;;;;;;11.87;6.10;;;;;;;4.14;100.00;97169.84;5007345;28;20022;-75
2021/12/14 11:58:30;;;;;;;11.30;6.53;;;;;;;4.05;100.00;97171.25;5024230;28;20025;-76
2021/12/14 12:01:23;;;;;;;10.93;6.53;;;;;;;4.08;100.00;97183.22;5008440;28;20034;-75
2021/12/14 12:04:02;;;;;;;12.43;6.43;;;;;;;4.12;100.00;97182.09;5019067;28;20705;-75
2021/12/14 12:09:32;;;;;;;10.60;6.57;;;;;;;4.00;100.00;97184.56;5012476;28;20051;-75
2021/12/14 12:12:06;;;;;;;13.37;6.93;;;;;;;4.05;100.00;97189.47;5013695;28;20104;-75
2021/12/14 12:14:44;;;;;;;15.80;7.03;;;;;;;4.07;100.00;97181.56;5009649;28;20033;-75
2021/12/14 12:17:16;;;;;;;13.63;7.17;;;;;;;4.04;100.00;97195.59;5013085;28;20099;-76
2021/12/14 12:20:12;;;;;;;11.03;6.60;;;;;;;4.09;100.00;97182.28;5000063;28;20029;-76
2021/12/14 12:22:44;;;;;;;24.00;8.83;;;;;;;3.96;100.00;97182.25;5014698;28;20036;-75
2021/12/14 12:25:17;;;;;;;17.70;8.50;;;;;;;4.03;100.00;97182.69;5030876;28;20157;-75
2021/12/14 12:27:59;;;;;;;12.55;7.50;;;;;;;4.12;100.00;97179.50;5007196;28;20755;-75
2021/12/14 12:30:47;;;;;;;20.83;8.03;;;;;;;3.97;100.00;97181.31;5013022;28;20112;-75
2021/12/14 12:33:25;;;;;;;14.87;9.17;;;;;;;4.09;100.00;97187.50;4992819;28;20037;-75
2021/12/14 12:36:03;;;;;;;17.30;9.37;;;;;;;4.16;100.00;97186.22;5014055;28;20072;-75
2021/12/14 12:38:35;;;;;;;16.60;8.20;;;;;;;4.12;100.00;97187.31;5030395;28;20037;-75
2021/12/14 12:41:09;;;;;;;20.60;9.70;;;;;;;4.03;100.00;97188.75;5010428;28;20071;-75
2021/12/14 12:43:46;;;;;;;30.40;9.73;;;;;;;4.14;100.00;97190.66;4995685;28;20033;-75